Estación Meteorológica Peña el Pijo (Robertgarden) [ 02/02/23 20:51:20 CET ]

Fecha Hora Presion(HPa) Temp (°C) Humedad % Rocio (°C) Viento ( m/s) Direccion Lluvia 1Hora(mm) Lluvia 24H(mm) LLuvia Total(mm)
2010-Feb-18 01:01:17 994.200 4.7 75 0.6         76.66
2010-Feb-18 02:03:19 994.100 4.1 75 0.0 1.7 S     76.66
2010-Feb-18 03:01:11 994.700 2.7 78 -0.8         76.66
2010-Feb-18 04:01:13 995.000 0.8 83 -1.8         76.66
2010-Feb-18 05:01:12 994.800 0.3 85 -1.9         76.66
2010-Feb-18 06:01:16 994.400 -0.2 86 -2.2         76.66
2010-Feb-18 07:01:17 994.000 -0.7 88 -2.4         76.66
2010-Feb-18 08:01:11 993.400 -0.8 89 -2.4         76.66
2010-Feb-18 09:01:15 993.200 -0.4 90 -1.8         76.66
2010-Feb-18 10:01:12 992.700 1.8 88 -0.0         76.66
2010-Feb-18 11:01:15 992.300 3.3 82 0.5         76.66
2010-Feb-18 12:01:11 991.700 4.9 77 1.2 0.9 S     76.66
2010-Feb-18 13:01:14 991.600 5.8 74 1.5         76.66
2010-Feb-18 14:01:13 989.700 5.6 79 2.2         76.66
2010-Feb-18 15:01:14 988.100 5.2 80 2.0         76.66
2010-Feb-18 16:01:17 986.800 4.5 87 2.5         76.66
2010-Feb-18 17:01:18 986.300 4.4 89 2.7         76.66
2010-Feb-18 18:01:15 985.800 4.2 88 2.4         76.66
2010-Feb-18 19:01:14 985.700 3.8 91 2.5         76.66
2010-Feb-18 20:01:12 985.600 3.5 92 2.3         76.66
2010-Feb-18 21:01:15 985.800 3.4 93 2.4         76.66
2010-Feb-18 22:01:11 985.500 3.4 93 2.4         76.66
2010-Feb-18 23:01:12 985.500 3.2 93 2.1         76.66

Temperatura Máxima:    Temperatura Mínima:
Presión Máxima:995.000 Hpa    Presión Mínima:985.500 Hpa


Volver